Northwest Alabama Regional Airport
KMSL : rendu visible

Aérodrome :











RETROUVEZ-NOUS SUR...

 
LOGIN :

S'inscrire | Disclaimer

   EN    FR    IT 

 









Légende :    VFR   VFR Marginal   IFR   IFR Intensif   IFR Très Intensif
Visi : 
Plafond : 
>= 8 km
>= 3000ft
5 à 8 km
1000 à 3000 ft
1500m à 5 km
500 à 1000 ft
800 à 1500m
200 à 500 ft
< 800m
< 200 ft
Symboles :   Orages  Brouillard  Fortes neiges  Fortes précipitations  Vent > 20 kt






- Altitude de l'aérodrome : 551 ft
- Code IATA : MSL


KMSL - Northwest Alabama Regional

DERNIER METAR :
  • 191253Z AUTO 16004KT 10SM FEW120 06/04 A2985 RMK AO2 RAE00 SLP108 P0000 T00610044 $

METARs EXPIRÉS :
  • 191153Z AUTO 12004KT 9SM -RA BKN065 OVC090 07/06 A2984 RMK AO2 RAB48 SLP104 P0000 60002 70002 T00720056 10083 20072 55002 $
  • 191053Z AUTO 14004KT 10SM OVC065 07/06 A2983 RMK AO2 RAE00 SLP102 P0000 T00720056 $

TAF KMSL
Valide du 19 à 12h jusqu'au 20 à 12h UTC


191140Z 1912/2012 00000KT P6SM BKN060
FM191500 27007KT P6SM FEW250
FM191900 28008G14KT P6SM SKC
FM200100 VRB03KT P6SM SKC



MET'MAP, la Météo Aéronautique d'un coup d'oeil ! - Copyright ORBIFLY Décembre 2007 - Disclaimer

ORBIFLY MET'MAP TEAM :

Programmation & Développement : Alexandra Zaïnal
Conception & Développement : Baudouin d'Aumeries
Co-Programmation & Développement : Marc-Olivier Méhu
Soutien technique & logistique : Manuel Goepfert

Contact : metmap@orbifly.com




SOURCES & CREDITS :

   NOAA       Earth
Advisory